Time;durP1;ratioP1;P1;durP2;ratioP2;P2;SDS_P1;SDS_P2;PMS_P1;PMS_P2;Temp;Humidity;BMP_temperature;BMP_pressure;BME280_temperature;BME280_humidity;BME280_pressure;Samples;Min_cycle;Max_cycle;Signal;HPM_P1;HPM_P2
2022/10/21 00:00:32;;;;;;;31.77;21.80;;;14.60;99.90;;;;;;5083500;28;20043;-66
2022/10/21 00:02:57;;;;;;;30.05;22.55;;;14.60;99.90;;;;;;5081414;28;20044;-65
2022/10/21 00:05:23;;;;;;;37.80;23.48;;;14.50;99.90;;;;;;5082482;28;20090;-66
2022/10/21 00:07:48;;;;;;;38.63;22.00;;;14.50;99.90;;;;;;5081147;28;20028;-66
2022/10/21 00:10:14;;;;;;;36.33;21.55;;;14.60;99.90;;;;;;5064387;28;20128;-66
2022/10/21 00:12:40;;;;;;;31.38;22.00;;;14.50;99.90;;;;;;5082116;28;20504;-66
2022/10/21 00:15:08;;;;;;;30.98;21.50;;;14.60;99.90;;;;;;5082157;28;20038;-66
2022/10/21 00:17:35;;;;;;;33.88;21.45;;;14.50;99.90;;;;;;5064539;28;20043;-66
2022/10/21 00:20:02;;;;;;;30.85;21.58;;;14.50;99.90;;;;;;5082093;28;20706;-66
2022/10/21 00:22:27;;;;;;;30.70;20.75;;;14.50;99.90;;;;;;5063037;28;20107;-66
2022/10/21 00:24:53;;;;;;;32.65;21.10;;;14.50;99.90;;;;;;5082372;28;20424;-66
2022/10/21 00:27:18;;;;;;;30.42;21.05;;;14.50;99.90;;;;;;5083988;28;20394;-66
2022/10/21 00:29:44;;;;;;;33.08;20.27;;;14.50;99.90;;;;;;5086501;28;20024;-66
2022/10/21 00:32:09;;;;;;;33.05;21.90;;;14.50;99.90;;;;;;5074439;28;20337;-65
2022/10/21 00:34:35;;;;;;;29.98;20.45;;;14.50;99.90;;;;;;5075058;28;20024;-66
2022/10/21 00:37:01;;;;;;;27.58;20.02;;;14.50;99.90;;;;;;5054369;28;20077;-66
2022/10/21 00:39:26;;;;;;;28.55;18.63;;;14.50;99.90;;;;;;5066235;28;20036;-66
2022/10/21 00:41:52;;;;;;;27.67;19.77;;;14.50;99.90;;;;;;5070219;28;20032;-66
2022/10/21 00:44:17;;;;;;;28.55;18.85;;;14.50;99.90;;;;;;5064518;28;20028;-66
2022/10/21 00:46:48;;;;;;;23.50;18.48;;;14.50;99.90;;;;;;5066179;28;20186;-66
2022/10/21 00:49:19;;;;;;;29.88;19.13;;;14.50;99.90;;;;;;5058899;28;20054;-66
2022/10/21 00:51:48;;;;;;;24.75;18.77;;;14.50;99.90;;;;;;5049691;28;20127;-66
2022/10/21 00:54:14;;;;;;;30.40;18.75;;;14.50;99.90;;;;;;5073592;28;20032;-67
2022/10/21 00:56:43;;;;;;;24.33;18.38;;;14.50;99.90;;;;;;5060674;28;20037;-66
2022/10/21 00:59:09;;;;;;;25.85;17.70;;;14.50;99.90;;;;;;5075404;28;20132;-67
2022/10/21 01:01:34;;;;;;;27.42;17.60;;;14.50;99.90;;;;;;5068594;28;20142;-66
2022/10/21 01:04:02;;;;;;;22.02;17.20;;;14.40;99.90;;;;;;5072304;28;20384;-66
2022/10/21 01:06:28;;;;;;;22.52;16.52;;;14.40;99.90;;;;;;5085867;28;20043;-66
2022/10/21 01:08:55;;;;;;;22.98;17.05;;;14.30;99.90;;;;;;5085540;28;20042;-66
2022/10/21 01:11:23;;;;;;;21.45;16.08;;;14.30;99.90;;;;;;5085309;28;20097;-66
2022/10/21 01:14:26;;;;;;;23.65;16.40;;;14.40;99.90;;;;;;5083474;28;20040;-66
2022/10/21 01:17:10;;;;;;;21.40;15.90;;;14.30;99.90;;;;;;5040215;28;20113;-66
2022/10/21 01:19:36;;;;;;;23.73;16.15;;;14.30;99.90;;;;;;5079007;28;20074;-66
2022/10/21 01:22:07;;;;;;;24.17;16.27;;;14.30;99.90;;;;;;5084839;28;20055;-66
2022/10/21 01:24:46;;;;;;;21.67;16.20;;;14.30;99.90;;;;;;5085631;28;20036;-66
2022/10/21 01:27:41;;;;;;;25.70;16.85;;;14.30;99.90;;;;;;5083811;28;20061;-66
2022/10/21 01:30:07;;;;;;;24.13;15.90;;;14.40;99.90;;;;;;5081989;28;20430;-66
2022/10/21 01:32:57;;;;;;;24.42;16.50;;;14.20;99.90;;;;;;5085596;28;20031;-66
2022/10/21 01:35:42;;;;;;;25.08;16.15;;;14.20;99.90;;;;;;5075732;28;20036;-66
2022/10/21 01:38:32;;;;;;;22.30;17.05;;;14.10;99.90;;;;;;5083625;28;20125;-66
2022/10/21 01:41:08;;;;;;;23.98;15.95;;;14.20;99.90;;;;;;5066605;28;20039;-66
2022/10/21 01:43:42;;;;;;;21.92;15.10;;;14.10;99.90;;;;;;5084752;28;20588;-66
2022/10/21 01:46:47;;;;;;;19.98;15.20;;;14.00;99.90;;;;;;5083546;28;20032;-66
2022/10/21 01:49:26;;;;;;;21.40;15.60;;;14.00;99.90;;;;;;5048805;28;20047;-66
2022/10/21 01:51:54;;;;;;;22.27;15.82;;;14.00;99.90;;;;;;5081301;28;20094;-66
2022/10/21 01:54:27;;;;;;;27.60;16.15;;;14.00;99.90;;;;;;5084735;28;20109;-66
2022/10/21 01:56:54;;;;;;;22.65;16.15;;;14.00;99.90;;;;;;5082538;28;20572;-66
2022/10/21 01:59:22;;;;;;;27.08;15.65;;;14.00;99.90;;;;;;5086413;28;20036;-66
2022/10/21 02:01:49;;;;;;;20.63;15.07;;;13.90;99.90;;;;;;5084177;28;20686;-66
2022/10/21 02:04:17;;;;;;;21.80;14.43;;;13.90;99.90;;;;;;5084681;28;20042;-66
2022/10/21 02:06:42;;;;;;;20.60;15.90;;;13.90;99.90;;;;;;5085541;28;20040;-66
2022/10/21 02:09:08;;;;;;;24.92;15.90;;;13.90;99.90;;;;;;5083122;28;20035;-66
2022/10/21 02:11:36;;;;;;;22.05;14.85;;;13.90;99.90;;;;;;5084867;28;20359;-69
2022/10/21 02:14:21;;;;;;;22.00;15.02;;;13.80;99.90;;;;;;5082695;28;20055;-66
2022/10/21 02:16:48;;;;;;;19.85;15.35;;;13.90;99.90;;;;;;5083259;28;20036;-66
2022/10/21 02:19:16;;;;;;;20.60;15.25;;;13.80;99.90;;;;;;5081295;28;20848;-66
2022/10/21 02:21:44;;;;;;;22.10;15.15;;;13.80;99.90;;;;;;5067549;28;20036;-66
2022/10/21 02:24:18;;;;;;;25.77;15.48;;;13.80;99.90;;;;;;5065425;28;20024;-66
2022/10/21 02:26:44;;;;;;;20.77;15.15;;;13.80;99.90;;;;;;5087942;28;20032;-66
2022/10/21 02:29:11;;;;;;;23.25;15.65;;;13.80;99.90;;;;;;5081913;28;20035;-66
2022/10/21 02:32:12;;;;;;;20.35;15.48;;;13.80;99.90;;;;;;5084161;28;20392;-65
2022/10/21 02:35:16;;;;;;;21.83;13.77;;;13.80;99.90;;;;;;5082994;28;20438;-66
2022/10/21 02:38:04;;;;;;;22.50;14.83;;;13.70;99.90;;;;;;5081478;28;20518;-66
2022/10/21 02:40:30;;;;;;;20.10;14.10;;;13.70;99.90;;;;;;5080606;28;20055;-65
2022/10/21 02:43:02;;;;;;;20.30;14.23;;;13.80;99.90;;;;;;5082667;28;20028;-66
2022/10/21 02:45:28;;;;;;;21.53;14.20;;;13.80;99.90;;;;;;5069664;28;20523;-65
2022/10/21 02:47:53;;;;;;;18.77;13.93;;;13.70;99.90;;;;;;5084595;28;20403;-66
2022/10/21 02:50:19;;;;;;;20.13;13.90;;;13.70;99.90;;;;;;5082479;28;20041;-66
2022/10/21 02:52:45;;;;;;;19.50;13.70;;;13.70;99.90;;;;;;5082809;28;20032;-65
2022/10/21 02:55:11;;;;;;;21.73;13.85;;;13.70;99.90;;;;;;5083819;28;20032;-66
2022/10/21 02:57:37;;;;;;;16.70;13.18;;;13.70;99.90;;;;;;5065239;28;20032;-66
2022/10/21 03:00:04;;;;;;;17.67;13.60;;;13.70;99.90;;;;;;5082889;28;20043;-65
2022/10/21 03:02:30;;;;;;;19.63;13.60;;;13.70;99.90;;;;;;5082708;28;20040;-66
2022/10/21 03:04:55;;;;;;;19.38;13.27;;;13.70;99.90;;;;;;5083459;28;20127;-66
2022/10/21 03:07:21;;;;;;;22.98;13.57;;;13.70;99.90;;;;;;5084860;28;20052;-66
2022/10/21 03:09:47;;;;;;;20.55;13.23;;;13.70;99.90;;;;;;5084298;28;20039;-68
2022/10/21 03:12:12;;;;;;;21.35;12.45;;;13.70;99.90;;;;;;5081042;28;20123;-65
2022/10/21 03:14:38;;;;;;;19.77;12.90;;;13.70;99.90;;;;;;5082813;28;20047;-66
2022/10/21 03:17:03;;;;;;;20.38;12.30;;;13.70;99.90;;;;;;5084298;28;20051;-65
2022/10/21 03:19:29;;;;;;;20.67;11.98;;;13.70;99.90;;;;;;5079981;28;21058;-68
2022/10/21 03:21:54;;;;;;;18.70;12.10;;;13.70;99.90;;;;;;5085090;28;20379;-66
2022/10/21 03:24:20;;;;;;;18.10;11.65;;;13.60;99.90;;;;;;5082207;28;20446;-65
2022/10/21 03:26:45;;;;;;;17.80;11.35;;;13.70;99.90;;;;;;5082274;28;20032;-66
2022/10/21 03:29:11;;;;;;;15.13;11.00;;;13.60;99.90;;;;;;5088519;28;20021;-65
2022/10/21 03:31:37;;;;;;;16.08;10.68;;;13.60;99.90;;;;;;5059487;28;20047;-65
2022/10/21 03:34:02;;;;;;;14.52;10.65;;;13.60;99.90;;;;;;5064644;28;20025;-65
2022/10/21 03:36:28;;;;;;;22.90;11.05;;;13.70;99.90;;;;;;5082270;28;20390;-66
2022/10/21 03:38:53;;;;;;;12.90;9.77;;;13.70;99.90;;;;;;5083676;28;20043;-65
2022/10/21 03:41:19;;;;;;;22.42;10.55;;;13.70;99.90;;;;;;5082716;28;20035;-65
2022/10/21 03:43:44;;;;;;;14.45;9.70;;;13.70;99.90;;;;;;5083987;28;20024;-65
2022/10/21 03:46:10;;;;;;;15.10;10.10;;;13.70;99.90;;;;;;5083045;28;20032;-65
2022/10/21 03:48:35;;;;;;;17.85;10.25;;;13.70;99.90;;;;;;5085362;28;20412;-65
2022/10/21 03:51:01;;;;;;;11.75;8.95;;;13.70;99.90;;;;;;5082776;28;20127;-65
2022/10/21 03:53:27;;;;;;;13.20;8.93;;;13.60;99.90;;;;;;5070615;28;20115;-65
2022/10/21 03:55:52;;;;;;;12.52;9.48;;;13.70;99.90;;;;;;5082773;28;20152;-65
2022/10/21 03:58:18;;;;;;;15.05;8.98;;;13.60;99.90;;;;;;5080508;28;20046;-65
2022/10/21 04:00:44;;;;;;;14.20;9.05;;;13.70;99.90;;;;;;5082580;28;20345;-65
2022/10/21 04:03:09;;;;;;;13.95;9.27;;;13.60;99.90;;;;;;5080984;28;20036;-65
2022/10/21 04:05:35;;;;;;;12.45;8.70;;;13.70;99.90;;;;;;5079280;28;20043;-65
2022/10/21 04:08:00;;;;;;;14.73;9.07;;;13.70;99.90;;;;;;5085541;28;20044;-65
2022/10/21 04:10:26;;;;;;;13.90;8.75;;;13.70;99.90;;;;;;5084583;28;20043;-65
2022/10/21 04:12:51;;;;;;;13.55;8.90;;;13.70;99.90;;;;;;5066299;28;20036;-65
2022/10/21 04:15:17;;;;;;;16.73;8.70;;;13.70;99.90;;;;;;5086806;28;20032;-65
2022/10/21 04:17:45;;;;;;;13.88;8.57;;;13.70;99.90;;;;;;5087056;28;20048;-65
2022/10/21 04:20:11;;;;;;;11.23;8.32;;;13.70;99.90;;;;;;5081466;28;20067;-65
2022/10/21 04:22:36;;;;;;;17.85;9.35;;;13.70;99.90;;;;;;5066772;28;20738;-65
2022/10/21 04:25:02;;;;;;;13.85;8.55;;;13.70;99.90;;;;;;5085680;28;20028;-65
2022/10/21 04:27:27;;;;;;;12.90;8.40;;;13.70;99.90;;;;;;5085176;28;20044;-65
2022/10/21 04:29:53;;;;;;;11.32;8.43;;;13.70;99.90;;;;;;5086263;28;20040;-65
2022/10/21 04:32:18;;;;;;;11.85;8.20;;;13.70;99.90;;;;;;5086347;28;20032;-65
2022/10/21 04:34:44;;;;;;;11.68;8.15;;;13.80;99.90;;;;;;5068829;28;20101;-66
2022/10/21 04:37:10;;;;;;;13.32;8.30;;;13.80;99.90;;;;;;5085044;28;20036;-65
2022/10/21 04:39:36;;;;;;;17.92;8.30;;;13.70;99.90;;;;;;5081102;28;20056;-65
2022/10/21 04:42:01;;;;;;;11.18;8.60;;;13.70;99.90;;;;;;5082546;28;20063;-65
2022/10/21 04:44:27;;;;;;;14.57;7.68;;;13.80;99.90;;;;;;5084625;28;20039;-65
2022/10/21 04:46:52;;;;;;;11.40;7.43;;;13.80;99.90;;;;;;5085238;28;20039;-65
2022/10/21 04:49:18;;;;;;;13.82;8.10;;;13.70;99.90;;;;;;5085031;28;20020;-65
2022/10/21 04:51:44;;;;;;;9.32;7.55;;;13.70;99.90;;;;;;5086158;28;20032;-65
2022/10/21 04:54:10;;;;;;;11.40;8.00;;;13.80;99.90;;;;;;5084503;28;20024;-65
2022/10/21 04:56:35;;;;;;;10.77;7.90;;;13.80;99.90;;;;;;5084957;28;20111;-65
2022/10/21 04:59:01;;;;;;;12.65;7.68;;;13.80;99.90;;;;;;5084229;28;20054;-65
2022/10/21 05:01:26;;;;;;;12.98;7.93;;;13.80;99.90;;;;;;5067245;28;20038;-65
2022/10/21 05:03:52;;;;;;;10.82;7.47;;;13.90;99.90;;;;;;5083691;28;20391;-66
2022/10/21 05:06:17;;;;;;;10.70;7.72;;;13.90;99.90;;;;;;5085192;28;20571;-65
2022/10/21 05:08:43;;;;;;;12.82;7.85;;;13.90;99.90;;;;;;5084168;28;20461;-66
2022/10/21 05:11:08;;;;;;;13.48;7.45;;;13.90;99.90;;;;;;5084742;28;20043;-64
2022/10/21 05:13:34;;;;;;;10.63;7.60;;;14.00;99.90;;;;;;5080952;28;20096;-65
2022/10/21 05:16:01;;;;;;;11.75;7.15;;;14.00;99.90;;;;;;5082341;28;20097;-65
2022/10/21 05:18:27;;;;;;;11.10;6.80;;;14.00;99.90;;;;;;5085572;28;20025;-65
2022/10/21 05:20:54;;;;;;;11.18;7.15;;;14.00;99.90;;;;;;5083022;28;20032;-65
2022/10/21 05:23:20;;;;;;;9.32;6.72;;;14.00;99.90;;;;;;5081134;28;20221;-65
2022/10/21 05:25:47;;;;;;;11.88;6.65;;;14.00;99.90;;;;;;5084788;28;20161;-65
2022/10/21 05:28:12;;;;;;;7.80;6.38;;;13.90;99.90;;;;;;5082158;28;20043;-65
2022/10/21 05:30:38;;;;;;;13.65;7.13;;;13.90;99.90;;;;;;5077995;28;20032;-65
2022/10/21 05:33:04;;;;;;;9.00;6.43;;;14.10;99.90;;;;;;5082709;28;20155;-65
2022/10/21 05:35:30;;;;;;;12.35;7.40;;;13.90;99.90;;;;;;5083475;28;20043;-65
2022/10/21 05:37:56;;;;;;;11.98;6.90;;;13.90;99.90;;;;;;5083255;28;20036;-65
2022/10/21 05:40:21;;;;;;;10.45;6.40;;;14.00;99.90;;;;;;5084905;28;20047;-65
2022/10/21 05:42:47;;;;;;;10.77;6.70;;;13.90;99.90;;;;;;5084007;28;20036;-66
2022/10/21 05:45:12;;;;;;;12.35;6.50;;;13.90;99.90;;;;;;5082124;28;20020;-65
2022/10/21 05:47:40;;;;;;;10.07;5.90;;;13.90;99.90;;;;;;5082926;28;20514;-65
2022/10/21 05:50:07;;;;;;;10.02;6.32;;;14.10;99.90;;;;;;5083666;28;20387;-65
2022/10/21 05:52:33;;;;;;;9.57;5.70;;;14.00;99.90;;;;;;5080568;28;20055;-65
2022/10/21 05:54:58;;;;;;;9.40;5.78;;;14.00;99.90;;;;;;5084258;28;20040;-65
2022/10/21 05:57:24;;;;;;;8.55;5.97;;;14.00;99.90;;;;;;5082254;28;20104;-65
2022/10/21 05:59:50;;;;;;;12.32;6.97;;;14.00;99.90;;;;;;5080521;28;20127;-65
2022/10/21 06:02:16;;;;;;;9.50;6.18;;;13.90;99.90;;;;;;5081179;28;20158;-66
2022/10/21 06:04:42;;;;;;;9.90;6.28;;;13.90;99.90;;;;;;5076699;28;20491;-65
2022/10/21 06:07:08;;;;;;;11.73;6.35;;;13.90;99.90;;;;;;5081020;28;20179;-66
2022/10/21 06:09:33;;;;;;;13.02;6.03;;;13.90;99.90;;;;;;5076364;28;20043;-66
2022/10/21 06:11:59;;;;;;;9.02;6.00;;;13.80;99.90;;;;;;5082933;28;20360;-66
2022/10/21 06:14:25;;;;;;;9.45;6.28;;;13.90;99.90;;;;;;5076666;28;20047;-66
2022/10/21 06:16:51;;;;;;;13.18;6.68;;;13.80;99.90;;;;;;5078573;28;20055;-66
2022/10/21 06:19:16;;;;;;;12.68;6.40;;;13.80;99.90;;;;;;5076540;28;20035;-65
2022/10/21 06:21:42;;;;;;;7.93;6.28;;;13.80;99.90;;;;;;5082821;28;20040;-66
2022/10/21 06:24:07;;;;;;;9.20;5.90;;;13.90;99.90;;;;;;5079336;28;20046;-66
2022/10/21 06:26:33;;;;;;;10.43;6.50;;;13.90;99.90;;;;;;5079562;28;20039;-66
2022/10/21 06:28:59;;;;;;;12.32;6.95;;;13.80;99.90;;;;;;5061724;28;20028;-66
2022/10/21 06:31:24;;;;;;;35.45;12.00;;;13.80;99.90;;;;;;5069768;28;20043;-66
2022/10/21 06:33:50;;;;;;;19.55;8.73;;;13.70;99.90;;;;;;5071689;28;20036;-66
2022/10/21 06:36:16;;;;;;;11.35;6.32;;;13.80;99.90;;;;;;5080443;28;20489;-66
2022/10/21 06:38:43;;;;;;;15.27;6.40;;;13.80;99.90;;;;;;5081215;28;20047;-65
2022/10/21 06:41:12;;;;;;;13.82;6.90;;;13.80;99.90;;;;;;5079588;28;20113;-66
2022/10/21 06:43:38;;;;;;;9.60;5.90;;;13.90;99.90;;;;;;5073488;28;20429;-66
2022/10/21 06:46:06;;;;;;;9.43;5.95;;;13.90;99.90;;;;;;5080156;28;20031;-66
2022/10/21 06:48:33;;;;;;;12.57;6.13;;;13.90;99.90;;;;;;5056840;28;20059;-65
2022/10/21 06:51:00;;;;;;;8.32;5.80;;;13.90;99.90;;;;;;5063855;28;20337;-66
2022/10/21 06:53:26;;;;;;;10.18;6.30;;;14.00;99.90;;;;;;5078923;28;20047;-66
2022/10/21 06:56:07;;;;;;;10.52;6.03;;;14.00;99.90;;;;;;5079086;28;20118;-66
2022/10/21 06:58:34;;;;;;;8.60;5.45;;;14.00;99.90;;;;;;5075159;28;20052;-67
2022/10/21 07:01:06;;;;;;;13.35;6.07;;;14.30;99.90;;;;;;5076400;28;20039;-67
2022/10/21 07:03:32;;;;;;;11.75;6.25;;;14.30;99.90;;;;;;5080139;28;20047;-67
2022/10/21 07:05:58;;;;;;;10.90;5.80;;;14.40;99.90;;;;;;5057810;28;20032;-66
2022/10/21 07:08:26;;;;;;;12.93;5.97;;;14.20;99.90;;;;;;5061627;28;20051;-65
2022/10/21 07:10:52;;;;;;;8.32;5.68;;;14.30;99.90;;;;;;5076219;28;20169;-66
2022/10/21 07:13:17;;;;;;;9.95;5.53;;;14.20;99.90;;;;;;5073154;28;20032;-65
2022/10/21 07:15:43;;;;;;;8.82;5.35;;;14.40;99.90;;;;;;5056391;28;20511;-66
2022/10/21 07:18:08;;;;;;;9.27;4.90;;;14.30;99.90;;;;;;5076920;28;20119;-66
2022/10/21 07:20:34;;;;;;;9.68;4.68;;;14.20;99.90;;;;;;5081131;28;20071;-66
2022/10/21 07:23:00;;;;;;;8.88;5.30;;;14.20;99.90;;;;;;5075947;28;20039;-66
2022/10/21 07:25:25;;;;;;;8.70;5.50;;;14.30;99.90;;;;;;5078264;28;20032;-66
2022/10/21 07:27:51;;;;;;;12.73;5.30;;;14.30;99.90;;;;;;5074916;28;20510;-66
2022/10/21 07:30:16;;;;;;;9.38;5.20;;;14.20;99.90;;;;;;5079625;28;20363;-66
2022/10/21 07:32:42;;;;;;;8.57;5.38;;;14.30;99.90;;;;;;5079002;28;20044;-66
2022/10/21 07:35:08;;;;;;;9.65;4.88;;;14.30;99.90;;;;;;5079453;28;20167;-65
2022/10/21 07:37:33;;;;;;;9.65;5.13;;;14.30;99.90;;;;;;5074119;28;20040;-65
2022/10/21 07:39:59;;;;;;;7.88;4.97;;;14.40;99.90;;;;;;5079567;28;20043;-66
2022/10/21 07:42:26;;;;;;;7.07;4.82;;;14.50;99.90;;;;;;5080092;28;20111;-66
2022/10/21 07:44:56;;;;;;;9.02;4.68;;;14.50;99.90;;;;;;5079626;28;20052;-66
2022/10/21 07:47:21;;;;;;;9.20;4.95;;;14.60;99.90;;;;;;5075129;28;20047;-65
2022/10/21 07:49:47;;;;;;;9.52;4.88;;;;;;;;;;5076588;28;20096;-65
2022/10/21 07:52:13;;;;;;;7.45;5.25;;;14.30;99.90;;;;;;5067949;28;20069;-66
2022/10/21 07:54:38;;;;;;;10.32;5.00;;;14.80;99.90;;;;;;5071483;28;20033;-66
2022/10/21 07:57:04;;;;;;;9.98;5.40;;;14.60;99.90;;;;;;5067766;28;20036;-66
2022/10/21 07:59:29;;;;;;;10.82;5.20;;;14.70;99.90;;;;;;5054070;28;20028;-66
2022/10/21 08:01:55;;;;;;;10.98;5.10;;;14.80;99.90;;;;;;5062245;28;20044;-66
2022/10/21 08:04:23;;;;;;;10.23;5.63;;;14.70;99.90;;;;;;5074067;28;20028;-66
2022/10/21 08:06:49;;;;;;;8.88;5.35;;;14.80;99.90;;;;;;5058586;28;20056;-66
2022/10/21 08:09:15;;;;;;;11.90;5.57;;;14.80;99.90;;;;;;5079119;28;20037;-66
2022/10/21 08:11:41;;;;;;;10.05;5.20;;;14.90;99.90;;;;;;5080927;28;20039;-66
2022/10/21 08:14:09;;;;;;;11.13;5.15;;;14.80;99.90;;;;;;5070514;28;20803;-65
2022/10/21 08:16:35;;;;;;;9.52;5.00;;;14.90;99.90;;;;;;5077682;28;20035;-66
2022/10/21 08:19:02;;;;;;;9.55;5.38;;;14.90;99.90;;;;;;5076747;28;20041;-66
2022/10/21 08:21:30;;;;;;;10.02;5.30;;;14.90;99.90;;;;;;5075870;28;20036;-66
2022/10/21 08:23:56;;;;;;;13.38;5.25;;;14.90;99.90;;;;;;5078147;28;20348;-66
2022/10/21 08:26:21;;;;;;;8.10;4.85;;;15.10;99.90;;;;;;5079600;28;20181;-66
2022/10/21 08:28:47;;;;;;;9.18;5.38;;;15.00;99.90;;;;;;5078874;28;20044;-66
2022/10/21 08:31:18;;;;;;;8.32;5.70;;;15.00;99.90;;;;;;5077573;28;20055;-65
2022/10/21 08:33:44;;;;;;;9.90;5.38;;;15.00;99.90;;;;;;5078588;28;20051;-66
2022/10/21 08:36:15;;;;;;;12.43;5.55;;;15.10;99.90;;;;;;5068900;28;20036;-66
2022/10/21 08:38:40;;;;;;;12.18;5.53;;;15.10;99.90;;;;;;5078647;28;20108;-66
2022/10/21 08:41:27;;;;;;;14.55;5.90;;;15.10;99.90;;;;;;5079618;28;20040;-66
2022/10/21 08:44:20;;;;;;;8.75;5.72;;;15.10;99.90;;;;;;5076042;28;20048;-66
2022/10/21 08:47:00;;;;;;;8.80;5.70;;;15.10;99.90;;;;;;5070827;28;20082;-67
2022/10/21 08:49:47;;;;;;;8.88;5.35;;;15.10;99.90;;;;;;5081608;28;20035;-66
2022/10/21 08:52:20;;;;;;;9.68;5.65;;;15.00;99.90;;;;;;5081075;28;20035;-66
2022/10/21 08:54:49;;;;;;;;;;;15.20;99.90;;;;;;5081248;28;20510;-66
2022/10/21 08:57:15;;;;;;;11.13;5.57;;;15.20;99.90;;;;;;5073620;28;19912;-65
2022/10/21 08:59:41;;;;;;;11.10;6.22;;;15.20;99.90;;;;;;5079251;28;20044;-65
2022/10/21 09:02:29;;;;;;;15.90;6.35;;;15.10;99.90;;;;;;5075126;28;20436;-64
2022/10/21 09:05:09;;;;;;;11.52;6.57;;;15.20;99.90;;;;;;5081671;28;20052;-65
2022/10/21 09:08:19;;;;;;;14.45;6.50;;;15.10;99.90;;;;;;5074867;28;20032;-65
2022/10/21 09:11:23;;;;;;;117.13;93.28;;;15.30;99.90;;;;;;5083068;28;20207;-65
2022/10/21 09:14:14;;;;;;;13.85;7.80;;;15.20;99.90;;;;;;5023297;28;20036;-64
2022/10/21 09:17:33;;;;;;;14.85;7.20;;;14.90;99.90;;;;;;5080803;28;20726;-64
2022/10/21 09:20:17;;;;;;;12.10;6.57;;;15.30;99.90;;;;;;5019354;28;20399;-64
2022/10/21 09:23:04;;;;;;;11.40;7.78;;;15.30;99.90;;;;;;4999623;28;20560;-64
2022/10/21 09:25:59;;;;;;;12.32;7.53;;;15.40;99.90;;;;;;5067198;28;20036;-65
2022/10/21 09:28:26;;;;;;;14.82;7.82;;;15.50;99.90;;;;;;5080515;28;20757;-65
2022/10/21 09:30:53;;;;;;;13.20;7.93;;;15.50;99.90;;;;;;5078441;28;20028;-65
2022/10/21 09:33:24;;;;;;;14.23;8.77;;;15.50;99.90;;;;;;5081941;28;20028;-65
2022/10/21 09:36:05;;;;;;;17.85;8.43;;;15.40;99.90;;;;;;5079702;28;20063;-65
2022/10/21 09:39:00;;;;;;;13.32;8.23;;;15.40;99.90;;;;;;5074608;28;20127;-65
2022/10/21 09:41:43;;;;;;;16.80;8.52;;;15.50;99.90;;;;;;5083727;28;20024;-65
2022/10/21 09:44:16;;;;;;;12.80;7.78;;;15.50;99.90;;;;;;5081860;28;20556;-64
2022/10/21 09:46:44;;;;;;;18.75;8.57;;;15.40;99.90;;;;;;5084052;28;20033;-65
2022/10/21 09:49:25;;;;;;;18.17;7.93;;;15.40;99.90;;;;;;5080619;28;20513;-65
2022/10/21 09:51:52;;;;;;;18.15;7.80;;;15.40;99.90;;;;;;5082539;28;21152;-65
2022/10/21 09:54:22;;;;;;;16.55;8.23;;;15.30;99.90;;;;;;5077965;28;20428;-64
2022/10/21 09:56:57;;;;;;;16.33;8.68;;;15.30;99.90;;;;;;5081209;28;20453;-65
2022/10/21 09:59:24;;;;;;;24.48;9.10;;;15.40;99.90;;;;;;5078005;28;20382;-65
2022/10/21 10:01:50;;;;;;;13.23;8.60;;;15.50;99.90;;;;;;5083107;28;20707;-65
2022/10/21 10:04:30;;;;;;;12.88;8.73;;;15.40;99.90;;;;;;5086090;28;20039;-65
2022/10/21 10:06:58;;;;;;;16.95;9.32;;;15.50;99.90;;;;;;5076111;28;20242;-64
2022/10/21 10:09:35;;;;;;;15.80;8.75;;;15.40;99.90;;;;;;5088853;28;20040;-64
2022/10/21 10:12:11;;;;;;;13.95;8.88;;;15.40;99.90;;;;;;5080031;28;20032;-64
2022/10/21 10:14:45;;;;;;;16.58;9.13;;;15.50;99.90;;;;;;5082716;28;20059;-64
2022/10/21 10:17:32;;;;;;;16.88;9.38;;;15.50;99.90;;;;;;5080753;28;20040;-65
2022/10/21 10:20:04;;;;;;;14.57;8.98;;;15.50;99.90;;;;;;5082249;28;20108;-65
2022/10/21 10:22:40;;;;;;;16.00;8.88;;;15.50;99.90;;;;;;5076056;28;20147;-65
2022/10/21 10:25:17;;;;;;;15.68;9.00;;;15.50;99.90;;;;;;5080828;28;20375;-65
2022/10/21 10:27:54;;;;;;;15.65;9.43;;;15.60;99.90;;;;;;5077330;28;20120;-64
2022/10/21 10:30:22;;;;;;;13.18;8.88;;;15.60;99.90;;;;;;5078514;28;20040;-65
2022/10/21 10:32:50;;;;;;;13.25;8.85;;;15.60;99.90;;;;;;5081133;28;20051;-65
2022/10/21 10:35:27;;;;;;;15.13;9.10;;;15.70;99.90;;;;;;5074772;28;20171;-64
2022/10/21 10:37:53;;;;;;;16.55;8.77;;;15.70;99.90;;;;;;5079168;28;20044;-65
2022/10/21 10:40:25;;;;;;;13.35;8.35;;;15.80;99.90;;;;;;5082119;28;20596;-65
2022/10/21 10:42:54;;;;;;;12.52;8.25;;;15.90;99.90;;;;;;5080493;28;20052;-64
2022/10/21 10:45:22;;;;;;;18.00;8.77;;;15.80;99.90;;;;;;5081688;28;20085;-64
2022/10/21 10:47:53;;;;;;;17.15;8.85;;;15.90;99.90;;;;;;5079370;28;20039;-65
2022/10/21 10:50:45;;;;;;;16.23;8.20;;;16.00;99.90;;;;;;5082195;28;20087;-66
2022/10/21 10:53:40;;;;;;;13.35;8.60;;;16.10;99.90;;;;;;5079581;28;20036;-66
2022/10/21 10:56:21;;;;;;;12.05;7.85;;;16.10;99.90;;;;;;5071165;28;20043;-65
2022/10/21 10:59:15;;;;;;;11.77;7.35;;;16.10;99.90;;;;;;5088284;28;20059;-65
2022/10/21 11:02:00;;;;;;;14.55;7.47;;;16.00;99.90;;;;;;5081218;28;20090;-65
2022/10/21 11:04:56;;;;;;;15.05;7.75;;;16.20;99.90;;;;;;5076750;28;20036;-66
2022/10/21 11:07:31;;;;;;;16.10;8.00;;;16.30;99.90;;;;;;5075529;28;20437;-67
2022/10/21 11:10:04;;;;;;;13.52;7.57;;;16.20;99.90;;;;;;5071107;28;20036;-66
2022/10/21 11:12:31;;;;;;;14.68;7.78;;;16.40;99.90;;;;;;5071930;28;20204;-66
2022/10/21 11:14:58;;;;;;;11.48;6.90;;;16.60;99.90;;;;;;5081411;28;20450;-66
2022/10/21 11:17:37;;;;;;;11.20;7.25;;;16.60;99.90;;;;;;5080868;28;20115;-66
2022/10/21 11:20:37;;;;;;;11.48;6.65;;;16.70;99.90;;;;;;5066225;28;20075;-66
2022/10/21 11:23:41;;;;;;;11.18;6.47;;;16.90;99.90;;;;;;5055907;28;20064;-67
2022/10/21 11:26:33;;;;;;;15.17;7.30;;;17.00;99.90;;;;;;5067864;28;20054;-66
2022/10/21 11:29:09;;;;;;;13.05;6.65;;;16.70;99.90;;;;;;5063478;28;20029;-66
2022/10/21 11:31:38;;;;;;;13.50;6.57;;;16.80;99.90;;;;;;5070066;28;20040;-66
2022/10/21 11:34:33;;;;;;;11.63;6.43;;;16.80;99.90;;;;;;5063827;28;20503;-66
2022/10/21 11:37:26;;;;;;;12.25;7.05;;;16.90;99.90;;;;;;5055867;28;20029;-67
2022/10/21 11:40:31;;;;;;;11.02;6.22;;;16.80;99.90;;;;;;5055968;28;20104;-66
2022/10/21 11:43:11;;;;;;;12.60;5.60;;;16.70;99.90;;;;;;4996516;28;20065;-66
2022/10/21 11:46:08;;;;;;;9.02;4.97;;;16.90;99.90;;;;;;5060578;28;20438;-67
2022/10/21 11:48:48;;;;;;;10.95;5.55;;;16.90;99.90;;;;;;5074624;28;21325;-66
2022/10/21 11:51:30;;;;;;;8.50;5.28;;;17.00;99.90;;;;;;5071376;28;20032;-66
2022/10/21 11:54:34;;;;;;;8.38;4.80;;;17.00;99.90;;;;;;5080550;28;20039;-66
2022/10/21 11:57:05;;;;;;;7.15;4.47;;;17.10;99.90;;;;;;5079804;28;20036;-66
2022/10/21 11:59:58;;;;;;;8.48;5.40;;;17.20;99.90;;;;;;5076858;28;20043;-66
2022/10/21 12:03:02;;;;;;;9.02;4.82;;;17.30;99.90;;;;;;5079765;28;20032;-66
2022/10/21 12:05:32;;;;;;;12.05;4.47;;;17.30;99.90;;;;;;5073581;28;20097;-66
2022/10/21 12:08:12;;;;;;;8.93;3.80;;;17.40;99.90;;;;;;5078516;28;20036;-66
2022/10/21 12:10:58;;;;;;;9.25;4.47;;;17.50;99.90;;;;;;5080978;28;20025;-67
2022/10/21 12:13:32;;;;;;;9.10;3.70;;;17.60;99.90;;;;;;5075444;28;20028;-66
2022/10/21 12:16:01;;;;;;;8.35;3.65;;;17.60;99.90;;;;;;5079610;28;20048;-66
2022/10/21 12:18:29;;;;;;;10.93;3.80;;;17.70;99.90;;;;;;5081517;28;20044;-66
2022/10/21 12:20:55;;;;;;;28.92;21.55;;;17.80;99.90;;;;;;5080017;28;20044;-67
2022/10/21 12:23:28;;;;;;;9.20;3.97;;;17.80;99.90;;;;;;5077373;28;20066;-67
2022/10/21 12:26:05;;;;;;;8.60;3.00;;;17.80;99.90;;;;;;5082987;28;20153;-67
2022/10/21 12:28:52;;;;;;;5.70;3.03;;;17.70;99.90;;;;;;5081641;28;20044;-67
2022/10/21 12:31:25;;;;;;;8.02;2.90;;;17.70;99.90;;;;;;5082964;28;20036;-67
2022/10/21 12:33:51;;;;;;;5.63;2.58;;;17.80;99.90;;;;;;5080997;28;20506;-67
2022/10/21 12:36:18;;;;;;;5.78;2.58;;;17.90;99.90;;;;;;5074442;28;20441;-66
2022/10/21 12:38:48;;;;;;;6.78;2.92;;;18.10;99.90;;;;;;5077254;28;20527;-67
2022/10/21 12:41:34;;;;;;;5.82;2.72;;;18.20;99.90;;;;;;5076020;28;20124;-66
2022/10/21 12:43:59;;;;;;;6.43;2.33;;;18.30;99.90;;;;;;5083597;28;20052;-66
2022/10/21 12:46:34;;;;;;;6.38;2.30;;;18.30;99.90;;;;;;5081884;28;20426;-68
2022/10/21 12:49:04;;;;;;;5.82;2.40;;;18.20;99.90;;;;;;5085152;28;20044;-67
2022/10/21 12:51:32;;;;;;;8.00;2.72;;;18.30;99.90;;;;;;5083199;28;20032;-66
2022/10/21 12:54:07;;;;;;;7.28;2.50;;;18.20;99.90;;;;;;5084840;28;20044;-68
2022/10/21 12:56:41;;;;;;;6.20;2.60;;;18.10;99.90;;;;;;5078584;28;20575;-66